Time;durP1;ratioP1;P1;durP2;ratioP2;P2;SDS_P1;SDS_P2;PMS_P1;PMS_P2;Temp;Humidity;BMP_temperature;BMP_pressure;BME280_temperature;BME280_humidity;BME280_pressure;Samples;Min_cycle;Max_cycle;Signal;HPM_P1;HPM_P2
2021/03/17 00:02:02;;;;;;;;;;;9.70;81.10;;;;;;5117581;28;20088;-67
2021/03/17 00:04:47;;;;;;;5.57;0.80;;;9.60;81.40;;;;;;5116505;28;19915;-67
2021/03/17 00:07:32;;;;;;;3.95;0.95;;;9.60;81.10;;;;;;5104435;28;20092;-67
2021/03/17 00:10:16;;;;;;;6.28;1.10;;;9.60;80.60;;;;;;5116518;28;20532;-67
2021/03/17 00:13:04;;;;;;;8.30;1.40;;;9.50;79.90;;;;;;5117091;28;20406;-67
2021/03/17 00:15:49;;;;;;;4.90;1.13;;;9.40;79.70;;;;;;5116779;28;20405;-67
2021/03/17 00:18:34;;;;;;;10.23;1.63;;;9.40;79.50;;;;;;5116021;28;20462;-67
2021/03/17 00:21:18;;;;;;;4.85;1.05;;;9.30;78.40;;;;;;5117102;28;20074;-67
2021/03/17 00:24:02;;;;;;;3.28;0.88;;;9.20;78.30;;;;;;5116158;28;20046;-67
2021/03/17 00:26:48;;;;;;;10.45;1.08;;;9.10;78.30;;;;;;5116688;28;20505;-67
2021/03/17 00:29:36;;;;;;;7.72;1.70;;;9.10;78.50;;;;;;5103439;28;20072;-67
2021/03/17 00:32:20;;;;;;;9.02;1.42;;;9.10;78.50;;;;;;5115574;28;20073;-67
2021/03/17 00:35:04;;;;;;;;;;;9.00;78.20;;;;;;5106235;28;20564;-67
2021/03/17 00:37:48;;;;;;;6.40;1.35;;;9.00;78.40;;;;;;5115700;28;20342;-67
2021/03/17 00:40:35;;;;;;;5.03;1.33;;;8.90;77.80;;;;;;5116469;28;20070;-67
2021/03/17 00:43:19;;;;;;;11.77;1.30;;;8.90;77.80;;;;;;5104570;28;20085;-67
2021/03/17 00:46:03;;;;;;;;;;;8.90;77.70;;;;;;5102920;28;20038;-67
2021/03/17 00:48:29;;;;;;;5.85;1.65;;;8.80;77.90;;;;;;5110170;28;20290;-67
2021/03/17 00:51:13;;;;;;;7.10;1.60;;;8.80;77.80;;;;;;5109588;28;20038;-67
2021/03/17 00:53:57;;;;;;;2.75;0.98;;;8.80;77.80;;;;;;5103085;28;20050;-67
2021/03/17 00:56:24;;;;;;;10.02;1.60;;;8.80;77.50;;;;;;5115960;28;20534;-67
2021/03/17 00:58:50;;;;;;;6.70;1.17;;;8.70;77.50;;;;;;5114829;28;20096;-68
2021/03/17 01:01:15;;;;;;;8.20;1.35;;;8.80;77.60;;;;;;5115287;28;20043;-68
2021/03/17 01:03:41;;;;;;;2.90;1.00;;;8.80;77.40;;;;;;5114570;28;20076;-68
2021/03/17 01:06:07;;;;;;;9.73;1.25;;;8.80;77.50;;;;;;5113709;28;20084;-68
2021/03/17 01:08:32;;;;;;;3.67;1.55;;;8.80;77.50;;;;;;5115704;28;20429;-68
2021/03/17 01:11:01;;;;;;;5.53;1.40;;;8.80;77.60;;;;;;5115481;28;20437;-68
2021/03/17 01:13:27;;;;;;;6.63;1.23;;;8.80;77.70;;;;;;5114830;28;20027;-68
2021/03/17 01:15:52;;;;;;;4.07;1.02;;;8.80;77.70;;;;;;5115797;28;20425;-68
2021/03/17 01:18:18;;;;;;;11.65;1.80;;;8.70;77.70;;;;;;5115634;28;20106;-68
2021/03/17 01:20:44;;;;;;;4.95;1.42;;;8.70;77.60;;;;;;5109327;28;20475;-68
2021/03/17 01:23:09;;;;;;;7.18;1.48;;;8.70;77.70;;;;;;5106029;28;20023;-68
2021/03/17 01:25:38;;;;;;;6.47;1.10;;;8.80;77.70;;;;;;5115516;28;20360;-68
2021/03/17 01:28:08;;;;;;;9.65;3.08;;;8.80;77.70;;;;;;5114872;28;20028;-68
2021/03/17 01:30:36;;;;;;;5.05;1.25;;;8.80;77.60;;;;;;5115220;28;20459;-68
2021/03/17 01:33:03;;;;;;;3.90;1.30;;;8.80;77.60;;;;;;5115398;28;20408;-68
2021/03/17 01:35:29;;;;;;;8.23;1.13;;;8.80;77.60;;;;;;5100725;28;20048;-68
2021/03/17 01:37:55;;;;;;;10.15;1.60;;;8.90;77.70;;;;;;5115106;28;20041;-68
2021/03/17 01:40:25;;;;;;;4.45;1.20;;;8.90;77.90;;;;;;5115433;28;20173;-68
2021/03/17 01:42:52;;;;;;;6.63;1.25;;;8.90;78.00;;;;;;5114323;28;20048;-68
2021/03/17 01:45:18;;;;;;;15.85;1.45;;;8.90;78.10;;;;;;5108263;28;20024;-68
2021/03/17 01:47:46;;;;;;;9.00;1.13;;;8.80;78.10;;;;;;5108027;28;20110;-68
2021/03/17 01:50:16;;;;;;;9.82;1.40;;;8.80;78.10;;;;;;5114481;28;20035;-68
2021/03/17 01:52:42;;;;;;;5.35;1.20;;;8.80;78.10;;;;;;5115179;28;20027;-68
2021/03/17 01:55:09;;;;;;;7.05;1.88;;;8.80;78.20;;;;;;5114917;28;20070;-68
2021/03/17 01:57:36;;;;;;;6.47;1.55;;;8.80;78.20;;;;;;5114162;28;20112;-68
2021/03/17 02:00:08;;;;;;;2.33;0.82;;;8.80;78.10;;;;;;5114757;28;20035;-68
2021/03/17 02:02:38;;;;;;;10.30;1.15;;;8.80;78.10;;;;;;5114299;28;20023;-68
2021/03/17 02:05:13;;;;;;;6.15;1.05;;;8.80;78.40;;;;;;5114911;28;20428;-68
2021/03/17 02:07:39;;;;;;;5.40;1.25;;;8.70;78.50;;;;;;5114937;28;20421;-68
2021/03/17 02:10:13;;;;;;;1.17;0.65;;;8.60;78.20;;;;;;5113876;28;20046;-68
2021/03/17 02:13:08;;;;;;;3.47;0.80;;;8.60;78.30;;;;;;5115009;28;20019;-68
2021/03/17 02:16:15;;;;;;;3.55;0.90;;;8.60;79.40;;;;;;5114595;28;20101;-68
2021/03/17 02:18:46;;;;;;;8.73;1.40;;;8.50;78.20;;;;;;5086763;28;20032;-68
2021/03/17 02:21:49;;;;;;;3.40;1.15;;;8.40;78.20;;;;;;5114452;28;20031;-68
2021/03/17 02:24:52;;;;;;;4.32;0.90;;;8.40;78.90;;;;;;5111896;28;20042;-68
2021/03/17 02:27:48;;;;;;;2.25;0.75;;;8.30;79.10;;;;;;5114206;28;20459;-68
2021/03/17 02:30:33;;;;;;;4.03;1.23;;;8.30;79.50;;;;;;5100709;28;20438;-68
2021/03/17 02:33:38;;;;;;;5.90;1.40;;;8.30;79.50;;;;;;5101798;28;20090;-68
2021/03/17 02:36:30;;;;;;;4.63;1.25;;;8.20;79.50;;;;;;5114007;28;20054;-68
2021/03/17 02:39:05;;;;;;;1.27;0.80;;;8.20;79.90;;;;;;5113332;28;20035;-68
2021/03/17 02:41:36;;;;;;;5.10;1.73;;;8.10;80.50;;;;;;5113945;28;20023;-68
2021/03/17 02:44:02;;;;;;;4.22;0.93;;;8.10;80.30;;;;;;5113763;28;20035;-68
2021/03/17 02:46:29;;;;;;;1.95;0.85;;;8.10;80.60;;;;;;5113415;28;20095;-68
2021/03/17 02:49:05;;;;;;;2.90;0.88;;;8.00;81.00;;;;;;5113960;28;20490;-68
2021/03/17 02:51:35;;;;;;;3.67;0.95;;;8.00;80.70;;;;;;5113950;28;20034;-68
2021/03/17 02:54:02;;;;;;;3.38;1.17;;;8.00;81.00;;;;;;5113324;28;20032;-68
2021/03/17 02:56:32;;;;;;;5.47;1.58;;;8.00;81.00;;;;;;5113741;28;20038;-68
2021/03/17 02:58:59;;;;;;;3.67;1.20;;;8.00;81.20;;;;;;5113103;28;20058;-68
2021/03/17 03:01:25;;;;;;;2.70;0.98;;;7.90;80.80;;;;;;5113562;28;20459;-68
2021/03/17 03:03:54;;;;;;;7.43;1.05;;;7.90;80.60;;;;;;5113810;28;20031;-68
2021/03/17 03:06:21;;;;;;;8.10;1.17;;;7.90;80.80;;;;;;5112804;28;20028;-68
2021/03/17 03:08:47;;;;;;;4.63;0.90;;;7.90;80.70;;;;;;5113654;27;20019;-68
2021/03/17 03:11:15;;;;;;;5.95;1.23;;;7.90;80.70;;;;;;5113389;28;20490;-68
2021/03/17 03:13:42;;;;;;;6.65;1.70;;;7.90;80.50;;;;;;5112871;27;20031;-68
2021/03/17 03:16:09;;;;;;;4.03;1.02;;;7.90;80.50;;;;;;5113662;28;20041;-68
2021/03/17 03:18:36;;;;;;;5.35;1.08;;;7.90;80.50;;;;;;5113428;28;20028;-68
2021/03/17 03:21:02;;;;;;;5.72;1.30;;;7.90;80.60;;;;;;5112780;28;20032;-68
2021/03/17 03:23:28;;;;;;;5.18;0.90;;;7.90;80.40;;;;;;5113488;28;20047;-68
2021/03/17 03:25:56;;;;;;;5.93;1.10;;;7.90;80.70;;;;;;5113623;28;20502;-68
2021/03/17 03:28:23;;;;;;;8.13;2.17;;;7.80;80.80;;;;;;5097551;28;20377;-68
2021/03/17 03:30:52;;;;;;;4.57;1.52;;;7.80;80.90;;;;;;5113237;28;20045;-68
2021/03/17 03:33:18;;;;;;;10.15;1.85;;;7.80;81.00;;;;;;5112910;28;20051;-68
2021/03/17 03:35:45;;;;;;;7.68;1.15;;;7.80;81.10;;;;;;5112309;28;20062;-68
2021/03/17 03:38:12;;;;;;;6.57;1.00;;;7.80;81.20;;;;;;5112257;28;20023;-68
2021/03/17 03:40:41;;;;;;;1.83;0.80;;;7.80;81.40;;;;;;5113314;28;20089;-69
2021/03/17 03:43:08;;;;;;;3.65;0.90;;;7.70;81.10;;;;;;5112585;28;20033;-68
2021/03/17 03:45:36;;;;;;;4.10;1.05;;;7.80;81.20;;;;;;5113054;28;20110;-68
2021/03/17 03:48:05;;;;;;;9.63;1.00;;;7.80;81.20;;;;;;5112387;28;20063;-68
2021/03/17 03:50:42;;;;;;;4.43;1.23;;;7.80;81.20;;;;;;5113203;28;20048;-68
2021/03/17 03:53:42;;;;;;;2.78;0.90;;;7.80;81.20;;;;;;5113277;28;20067;-68
2021/03/17 03:56:30;;;;;;;10.88;1.20;;;7.80;81.10;;;;;;5112097;28;20028;-68
2021/03/17 03:59:07;;;;;;;5.53;1.25;;;7.80;80.80;;;;;;5113370;28;20040;-68
2021/03/17 04:01:51;;;;;;;8.02;2.63;;;7.80;80.60;;;;;;5113153;28;20051;-68
2021/03/17 04:04:19;;;;;;;5.65;1.15;;;7.80;80.50;;;;;;5112254;28;20044;-68
2021/03/17 04:06:50;;;;;;;9.52;1.02;;;7.80;80.40;;;;;;5112956;28;20055;-68
2021/03/17 04:09:24;;;;;;;2.92;0.90;;;7.80;80.30;;;;;;5112079;28;20139;-68
2021/03/17 04:11:50;;;;;;;;;;;7.90;80.20;;;;;;5105085;28;20107;-68
2021/03/17 04:14:17;;;;;;;7.60;1.25;;;7.90;80.30;;;;;;5106970;28;20015;-68
2021/03/17 04:16:43;;;;;;;13.02;1.70;;;7.90;79.90;;;;;;5112186;28;20026;-68
2021/03/17 04:19:10;;;;;;;5.95;1.30;;;7.90;79.70;;;;;;5112847;28;20027;-69
2021/03/17 04:21:40;;;;;;;8.93;1.70;;;7.80;79.50;;;;;;5112492;28;20027;-68
2021/03/17 04:24:07;;;;;;;3.58;1.05;;;7.90;79.50;;;;;;5112475;28;20081;-68
2021/03/17 04:26:35;;;;;;;10.20;1.70;;;7.90;79.50;;;;;;5112719;28;20363;-68
2021/03/17 04:29:02;;;;;;;0.70;0.50;;;7.80;79.50;;;;;;5112675;28;20467;-69
2021/03/17 04:31:29;;;;;;;2.72;0.75;;;7.80;79.90;;;;;;5112045;28;20027;-68
2021/03/17 04:33:56;;;;;;;6.30;0.85;;;7.80;80.10;;;;;;5111463;28;20047;-69
2021/03/17 04:36:22;;;;;;;2.60;0.80;;;7.80;80.20;;;;;;5112623;28;20423;-69
2021/03/17 04:38:49;;;;;;;5.10;1.02;;;7.80;80.40;;;;;;5111930;28;20020;-69
2021/03/17 04:41:16;;;;;;;2.55;1.00;;;7.80;80.30;;;;;;5115422;28;20023;-68
2021/03/17 04:43:43;;;;;;;8.10;2.30;;;7.80;80.30;;;;;;5116124;28;20102;-68
2021/03/17 04:46:10;;;;;;;3.90;1.10;;;7.80;79.90;;;;;;5115632;28;20032;-68
2021/03/17 04:48:38;;;;;;;2.75;0.80;;;7.80;79.60;;;;;;5116138;28;20031;-68
2021/03/17 04:51:07;;;;;;;7.43;0.88;;;7.80;79.50;;;;;;5116045;28;20028;-68
2021/03/17 04:53:34;;;;;;;4.35;1.10;;;7.90;79.40;;;;;;5115637;28;20020;-68
2021/03/17 04:56:06;;;;;;;10.32;1.67;;;7.90;79.10;;;;;;5115984;28;20114;-68
2021/03/17 04:58:35;;;;;;;1.27;0.68;;;7.90;78.90;;;;;;5115185;28;20815;-68
2021/03/17 05:01:05;;;;;;;4.60;1.23;;;7.90;79.00;;;;;;5115894;28;20073;-75
2021/03/17 05:03:32;;;;;;;4.28;1.05;;;7.90;79.00;;;;;;5115454;28;20471;-68
2021/03/17 05:05:59;;;;;;;4.53;0.90;;;7.90;78.70;;;;;;5115088;28;20524;-68
2021/03/17 05:08:26;;;;;;;4.95;1.00;;;7.90;78.70;;;;;;5116058;28;20020;-68
2021/03/17 05:10:52;;;;;;;4.15;0.90;;;7.90;78.70;;;;;;5115815;27;20036;-68
2021/03/17 05:13:18;;;;;;;9.15;1.20;;;8.00;78.80;;;;;;5115129;28;20028;-68
2021/03/17 05:15:49;;;;;;;5.22;1.00;;;8.00;78.90;;;;;;5115549;28;20033;-68
2021/03/17 05:18:17;;;;;;;4.75;0.88;;;7.90;78.70;;;;;;5115729;28;20099;-68
2021/03/17 05:20:46;;;;;;;5.30;1.13;;;7.90;78.60;;;;;;5114674;28;20099;-68
2021/03/17 05:23:13;;;;;;;2.33;0.95;;;8.00;79.20;;;;;;5114838;28;20028;-68
2021/03/17 05:25:39;;;;;;;10.02;1.70;;;8.00;78.50;;;;;;5115492;27;20035;-68
2021/03/17 05:28:06;;;;;;;6.45;1.42;;;8.00;78.40;;;;;;5114583;28;20107;-68
2021/03/17 05:30:39;;;;;;;11.95;1.60;;;7.90;78.20;;;;;;5115469;28;20030;-68
2021/03/17 05:33:07;;;;;;;8.75;1.17;;;7.90;78.00;;;;;;5115113;28;20475;-68
2021/03/17 05:35:33;;;;;;;4.57;1.55;;;8.00;77.90;;;;;;5114556;28;20138;-68
2021/03/17 05:37:59;;;;;;;11.43;2.38;;;8.00;77.70;;;;;;5115368;28;20067;-68
2021/03/17 05:40:25;;;;;;;4.85;1.10;;;7.90;77.50;;;;;;5114694;28;20032;-68
2021/03/17 05:42:51;;;;;;;12.70;2.03;;;7.90;77.70;;;;;;5115238;28;20466;-68
2021/03/17 05:45:22;;;;;;;6.93;1.45;;;7.90;77.60;;;;;;5115180;28;20074;-68
2021/03/17 05:47:51;;;;;;;2.80;0.90;;;7.90;77.70;;;;;;5100491;28;20039;-68
2021/03/17 05:50:19;;;;;;;7.03;1.30;;;7.90;77.50;;;;;;5115283;28;20036;-68
2021/03/17 05:52:44;;;;;;;6.35;1.25;;;7.90;77.50;;;;;;5114367;28;20030;-68
2021/03/17 05:55:12;;;;;;;8.57;1.50;;;7.80;77.40;;;;;;5114277;28;20382;-68
2021/03/17 05:57:39;;;;;;;5.60;1.27;;;7.80;77.40;;;;;;5114676;28;20044;-68
2021/03/17 06:00:07;;;;;;;8.65;1.45;;;7.80;77.60;;;;;;5115179;28;20027;-68
2021/03/17 06:02:33;;;;;;;6.00;1.30;;;7.80;78.40;;;;;;5114152;28;20421;-68
2021/03/17 06:05:03;;;;;;;6.15;1.38;;;7.80;77.90;;;;;;5114923;28;20716;-68
2021/03/17 06:07:37;;;;;;;9.57;1.80;;;7.80;77.80;;;;;;5114775;27;20024;-68
2021/03/17 06:10:03;;;;;;;10.63;1.20;;;7.80;77.80;;;;;;5114066;28;20036;-68
2021/03/17 06:12:33;;;;;;;5.85;1.55;;;7.70;78.00;;;;;;5114060;28;20039;-68
2021/03/17 06:15:03;;;;;;;13.13;1.67;;;7.80;78.80;;;;;;5101524;28;20091;-69
2021/03/17 06:17:30;;;;;;;3.42;0.98;;;7.80;78.20;;;;;;5113738;28;20092;-69
2021/03/17 06:20:00;;;;;;;6.22;1.55;;;7.80;78.00;;;;;;5114359;28;20050;-70
2021/03/17 06:22:26;;;;;;;5.95;1.30;;;7.90;77.70;;;;;;5114446;28;20039;-70
2021/03/17 06:24:53;;;;;;;4.78;0.95;;;7.80;77.40;;;;;;5113573;27;20035;-67
2021/03/17 06:27:20;;;;;;;6.22;0.98;;;7.80;77.30;;;;;;5113898;28;20031;-67
2021/03/17 06:29:49;;;;;;;4.32;1.17;;;7.80;77.40;;;;;;5112443;28;20490;-68
2021/03/17 06:32:15;;;;;;;3.85;1.13;;;7.70;77.20;;;;;;5112448;28;20085;-67
2021/03/17 06:34:48;;;;;;;3.30;1.13;;;7.70;77.30;;;;;;5112136;28;20507;-68
2021/03/17 06:37:15;;;;;;;16.23;2.17;;;7.70;77.30;;;;;;5111419;28;20509;-67
2021/03/17 06:39:41;;;;;;;9.57;1.33;;;7.70;77.30;;;;;;5113300;28;20463;-67
2021/03/17 06:42:08;;;;;;;6.15;1.15;;;7.70;77.40;;;;;;5113584;28;20027;-67
2021/03/17 06:44:34;;;;;;;9.40;1.67;;;7.70;77.30;;;;;;5110876;28;20106;-67
2021/03/17 06:47:20;;;;;;;4.32;1.20;;;7.70;77.20;;;;;;5113734;28;20141;-69
2021/03/17 06:49:53;;;;;;;5.90;0.82;;;7.60;77.10;;;;;;5096088;28;20076;-75
2021/03/17 06:52:35;;;;;;;3.97;1.92;;;7.60;77.30;;;;;;5095741;28;20092;-75
2021/03/17 06:55:18;;;;;;;7.15;1.00;;;7.60;77.80;;;;;;5096500;28;20035;-68
2021/03/17 06:57:52;;;;;;;1.80;0.97;;;7.60;77.80;;;;;;5097430;28;20026;-68
2021/03/17 07:00:31;;;;;;;9.00;1.13;;;7.60;78.00;;;;;;5109073;28;20277;-68
2021/03/17 07:03:12;;;;;;;9.55;1.88;;;7.60;78.10;;;;;;5100854;28;20028;-68
2021/03/17 07:05:43;;;;;;;6.47;1.50;;;7.60;78.30;;;;;;5099591;28;20070;-67
2021/03/17 07:08:12;;;;;;;7.35;1.38;;;7.60;78.30;;;;;;5102044;28;20035;-68
2021/03/17 07:10:40;;;;;;;8.48;1.27;;;7.60;78.40;;;;;;5099508;28;20029;-68
2021/03/17 07:13:07;;;;;;;7.38;1.33;;;7.60;78.60;;;;;;5099154;28;20120;-68
2021/03/17 07:15:34;;;;;;;2.55;0.88;;;7.60;78.50;;;;;;5096410;28;20032;-69
2021/03/17 07:18:19;;;;;;;8.38;1.17;;;7.60;78.90;;;;;;5098508;28;20027;-73
2021/03/17 07:20:46;;;;;;;8.90;1.52;;;7.60;78.50;;;;;;5091885;28;20731;-68
2021/03/17 07:23:34;;;;;;;6.28;1.13;;;7.60;78.60;;;;;;5101067;28;20030;-67
2021/03/17 07:26:19;;;;;;;16.65;2.42;;;7.60;78.40;;;;;;5094177;28;20080;-68
2021/03/17 07:28:48;;;;;;;6.05;1.20;;;7.60;78.90;;;;;;5093205;28;20020;-68
2021/03/17 07:31:23;;;;;;;9.90;1.23;;;7.60;79.20;;;;;;5092467;28;20020;-68
2021/03/17 07:33:51;;;;;;;3.65;0.85;;;7.60;79.40;;;;;;5095371;28;20193;-67
2021/03/17 07:36:30;;;;;;;7.75;1.85;;;7.50;79.80;;;;;;5096801;28;20035;-79
2021/03/17 07:38:58;;;;;;;7.45;1.00;;;7.60;79.60;;;;;;5100346;28;20107;-74
2021/03/17 07:41:24;;;;;;;0.57;0.55;;;7.50;79.70;;;;;;5111671;28;20011;-67
2021/03/17 07:43:53;;;;;;;3.53;1.40;;;7.50;80.00;;;;;;5111778;28;20032;-67
2021/03/17 07:46:22;;;;;;;6.78;1.55;;;7.60;80.20;;;;;;5111388;28;20039;-67
2021/03/17 07:48:49;;;;;;;4.32;1.73;;;7.60;80.00;;;;;;5102676;28;20058;-68
2021/03/17 07:51:16;;;;;;;9.65;1.95;;;7.60;80.30;;;;;;5097822;28;20431;-68
2021/03/17 07:53:44;;;;;;;2.92;1.02;;;7.60;80.10;;;;;;5103035;28;20027;-68
2021/03/17 07:56:11;;;;;;;6.88;1.63;;;7.60;79.80;;;;;;5106053;28;20308;-68
2021/03/17 07:58:38;;;;;;;7.78;1.27;;;7.60;80.20;;;;;;5106575;28;20028;-80
2021/03/17 08:01:04;;;;;;;10.85;1.23;;;7.50;80.20;;;;;;5105555;28;20165;-68
2021/03/17 08:03:31;;;;;;;13.73;2.25;;;7.60;80.00;;;;;;5109176;28;20114;-68
2021/03/17 08:05:57;;;;;;;4.32;1.05;;;7.60;79.40;;;;;;5099257;28;20479;-68
2021/03/17 08:08:24;;;;;;;11.55;1.67;;;7.60;79.80;;;;;;5110839;28;20024;-68
2021/03/17 08:10:51;;;;;;;5.10;1.13;;;7.60;79.30;;;;;;5111531;28;20810;-68
2021/03/17 08:13:17;;;;;;;11.60;1.30;;;7.60;79.70;;;;;;5109743;28;20023;-68
2021/03/17 08:15:44;;;;;;;6.07;1.48;;;7.70;79.20;;;;;;5113399;28;20031;-68
2021/03/17 08:18:32;;;;;;;6.45;1.75;;;7.60;78.90;;;;;;5115394;28;20084;-68
2021/03/17 08:20:59;;;;;;;7.78;1.52;;;7.60;80.10;;;;;;5109338;28;20024;-68
2021/03/17 08:23:48;;;;;;;4.10;0.98;;;7.70;79.90;;;;;;5115440;28;20383;-68
2021/03/17 08:26:32;;;;;;;5.53;1.35;;;7.70;80.50;;;;;;5115187;28;20042;-68
2021/03/17 08:28:58;;;;;;;6.28;1.00;;;7.70;80.00;;;;;;5113750;28;20046;-69
2021/03/17 08:31:36;;;;;;;7.18;1.80;;;7.60;80.00;;;;;;5114723;28;20028;-68
2021/03/17 08:34:24;;;;;;;10.40;1.95;;;7.70;80.50;;;;;;5114918;28;20120;-68
2021/03/17 08:36:53;;;;;;;14.13;2.25;;;7.70;81.30;;;;;;5113732;28;20171;-69
2021/03/17 08:39:32;;;;;;;5.78;1.10;;;7.70;80.60;;;;;;5115235;27;20031;-68
2021/03/17 08:41:59;;;;;;;13.10;1.58;;;7.70;80.90;;;;;;5114873;28;20487;-68
2021/03/17 08:44:29;;;;;;;3.00;1.10;;;7.80;80.70;;;;;;5114314;28;20020;-68
2021/03/17 08:47:17;;;;;;;11.48;2.70;;;7.90;80.50;;;;;;5108130;28;20085;-68
2021/03/17 08:49:44;;;;;;;5.45;1.20;;;7.90;80.10;;;;;;5110697;28;20020;-72
2021/03/17 08:52:15;;;;;;;17.92;2.13;;;7.90;80.00;;;;;;5113471;28;20031;-72
2021/03/17 08:55:01;;;;;;;13.77;2.47;;;7.90;79.60;;;;;;5107805;28;20028;-72
2021/03/17 08:58:05;;;;;;;6.93;1.27;;;8.00;78.90;;;;;;5101422;28;20043;-71
2021/03/17 09:00:43;;;;;;;1.13;0.68;;;7.90;79.90;;;;;;5112338;28;20039;-70
2021/03/17 09:03:10;;;;;;;5.35;1.48;;;7.90;80.80;;;;;;5113637;28;20085;-69
2021/03/17 09:05:36;;;;;;;7.35;1.23;;;7.90;80.50;;;;;;5112813;28;20030;-69
2021/03/17 09:08:09;;;;;;;3.80;1.67;;;8.00;80.90;;;;;;5113053;28;20039;-69
2021/03/17 09:10:40;;;;;;;17.07;1.57;;;8.00;81.30;;;;;;5113230;28;20028;-71
2021/03/17 09:13:06;;;;;;;0.60;0.60;;;8.00;80.90;;;;;;5109276;27;20024;-77
2021/03/17 09:15:43;;;;;;;10.98;1.60;;;8.00;81.00;;;;;;5109539;28;20505;-70
2021/03/17 09:18:09;;;;;;;14.52;2.13;;;8.10;81.10;;;;;;5114685;28;20278;-70
2021/03/17 09:20:46;;;;;;;12.35;1.88;;;8.10;79.90;;;;;;5114302;28;20043;-69
2021/03/17 09:23:23;;;;;;;2.03;0.90;;;8.10;79.80;;;;;;5114466;28;20024;-70
2021/03/17 09:25:59;;;;;;;9.52;1.65;;;8.10;80.30;;;;;;5113798;28;20032;-70
2021/03/17 09:28:32;;;;;;;4.90;1.10;;;8.20;79.70;;;;;;5114128;28;20027;-69
2021/03/17 09:31:08;;;;;;;14.18;1.88;;;8.20;79.60;;;;;;5114467;28;20103;-70
2021/03/17 09:33:36;;;;;;;9.35;1.52;;;8.20;79.50;;;;;;5113750;28;20060;-70
2021/03/17 09:36:08;;;;;;;1.00;0.88;;;8.30;79.50;;;;;;5114304;28;20470;-70
2021/03/17 09:38:42;;;;;;;6.75;1.55;;;8.30;80.00;;;;;;5114718;27;20130;-70
2021/03/17 09:41:20;;;;;;;9.57;2.40;;;8.30;79.80;;;;;;5106169;28;20043;-70
2021/03/17 09:43:52;;;;;;;16.20;2.03;;;8.30;79.00;;;;;;5109329;28;20024;-70
2021/03/17 09:46:17;;;;;;;10.13;1.67;;;8.40;78.40;;;;;;5114401;28;20100;-70
2021/03/17 09:48:44;;;;;;;8.73;0.98;;;8.40;78.50;;;;;;5106890;28;20024;-70
2021/03/17 09:51:16;;;;;;;5.25;1.27;;;8.30;77.30;;;;;;5099972;28;20063;-69
2021/03/17 09:53:43;;;;;;;9.57;1.63;;;8.30;77.50;;;;;;5113918;28;20032;-69
2021/03/17 09:56:09;;;;;;;13.00;2.13;;;8.40;77.70;;;;;;5113990;28;20043;-70
2021/03/17 09:58:35;;;;;;;8.88;1.00;;;8.30;77.40;;;;;;5114461;28;20028;-69
2021/03/17 10:01:13;;;;;;;7.88;1.38;;;8.30;78.30;;;;;;5113081;28;20386;-70
2021/03/17 10:03:44;;;;;;;7.22;1.02;;;8.30;76.80;;;;;;5113556;28;20027;-70
2021/03/17 10:06:10;;;;;;;5.13;1.30;;;8.30;77.70;;;;;;5113340;28;20027;-70
2021/03/17 10:08:36;;;;;;;3.85;1.27;;;8.30;77.70;;;;;;5113349;28;20038;-69
2021/03/17 10:11:02;;;;;;;4.78;0.90;;;8.30;78.30;;;;;;5113630;28;20036;-70
2021/03/17 10:13:33;;;;;;;4.60;1.40;;;8.30;77.70;;;;;;5113939;28;20031;-70
2021/03/17 10:15:59;;;;;;;9.95;1.80;;;8.30;77.20;;;;;;5113114;28;20044;-70
2021/03/17 10:18:26;;;;;;;6.38;1.27;;;8.40;76.20;;;;;;5113842;28;20027;-70
2021/03/17 10:20:51;;;;;;;8.32;1.27;;;8.40;77.10;;;;;;5113487;28;20032;-70
2021/03/17 10:23:17;;;;;;;7.55;1.55;;;8.40;77.40;;;;;;5113038;28;20026;-72
2021/03/17 10:25:43;;;;;;;5.38;1.20;;;8.40;76.50;;;;;;5113402;28;20028;-69
2021/03/17 10:28:09;;;;;;;9.38;1.25;;;8.40;77.90;;;;;;5113429;28;20431;-69
2021/03/17 10:30:38;;;;;;;9.35;1.02;;;8.50;78.70;;;;;;5108588;28;20481;-70
2021/03/17 10:33:16;;;;;;;6.05;1.42;;;8.50;78.80;;;;;;5111956;28;20052;-79
2021/03/17 10:35:43;;;;;;;9.15;1.63;;;8.50;78.10;;;;;;5111125;28;20044;-80
2021/03/17 10:38:09;;;;;;;0.82;0.57;;;8.60;76.90;;;;;;5111629;28;20020;-80
2021/03/17 10:40:37;;;;;;;6.05;1.35;;;8.60;77.90;;;;;;5112434;28;20059;-79
2021/03/17 10:43:14;;;;;;;6.50;1.08;;;8.60;77.30;;;;;;5105005;28;20028;-70
2021/03/17 10:45:49;;;;;;;0.68;0.52;;;8.60;77.20;;;;;;5105611;28;20026;-71
2021/03/17 10:48:17;;;;;;;9.35;1.50;;;8.70;78.00;;;;;;5110474;28;20053;-71
2021/03/17 10:50:44;;;;;;;14.00;1.30;;;8.70;77.90;;;;;;5111981;28;20021;-71
2021/03/17 10:53:20;;;;;;;4.75;1.25;;;8.70;78.40;;;;;;5108187;28;20063;-70
2021/03/17 10:55:47;;;;;;;1.27;0.70;;;8.70;78.40;;;;;;5104475;28;20042;-77
2021/03/17 10:58:16;;;;;;;8.48;1.95;;;8.70;79.40;;;;;;5109829;28;20073;-79
2021/03/17 11:00:46;;;;;;;4.35;0.93;;;8.90;79.20;;;;;;5113027;27;20031;-74
2021/03/17 11:03:34;;;;;;;6.22;1.42;;;8.90;78.30;;;;;;5113277;28;20036;-74
2021/03/17 11:06:16;;;;;;;4.40;1.10;;;8.90;79.50;;;;;;5111484;28;20470;-75
2021/03/17 11:08:44;;;;;;;4.75;1.05;;;8.90;78.50;;;;;;5113087;28;20118;-75
2021/03/17 11:11:11;;;;;;;3.22;1.30;;;9.00;76.70;;;;;;5111475;28;20043;-70
2021/03/17 11:13:39;;;;;;;5.95;1.60;;;9.00;74.60;;;;;;5112225;28;20023;-71
2021/03/17 11:16:26;;;;;;;5.07;1.13;;;9.00;74.00;;;;;;5111319;28;20394;-72
2021/03/17 11:18:54;;;;;;;7.25;1.35;;;9.00;75.30;;;;;;5111631;28;20028;-71
2021/03/17 11:21:46;;;;;;;3.25;0.90;;;9.00;75.50;;;;;;5111358;28;20680;-71
2021/03/17 11:24:19;;;;;;;12.65;1.90;;;9.10;75.50;;;;;;5109958;28;20032;-71
2021/03/17 11:26:49;;;;;;;4.88;1.20;;;9.10;75.80;;;;;;5111709;28;20059;-71
2021/03/17 11:29:20;;;;;;;4.60;1.15;;;9.10;74.40;;;;;;5110406;28;20058;-70
2021/03/17 11:31:47;;;;;;;4.38;1.13;;;9.20;75.10;;;;;;5109411;28;20024;-70
2021/03/17 11:34:14;;;;;;;5.43;1.02;;;9.20;74.30;;;;;;5108267;28;20176;-70
2021/03/17 11:36:41;;;;;;;2.95;1.20;;;9.20;73.70;;;;;;5112279;28;20023;-70
2021/03/17 11:39:13;;;;;;;3.55;0.95;;;9.20;72.90;;;;;;5111550;28;20032;-69
2021/03/17 11:41:41;;;;;;;2.38;0.75;;;9.20;73.00;;;;;;5112542;28;20028;-69
2021/03/17 11:44:08;;;;;;;4.95;0.98;;;9.30;74.80;;;;;;5102607;28;20019;-69
2021/03/17 11:46:34;;;;;;;9.40;2.05;;;9.30;73.20;;;;;;5111639;28;20539;-69
2021/03/17 11:49:00;;;;;;;5.22;0.88;;;9.30;71.90;;;;;;5112193;28;20027;-69
2021/03/17 11:51:26;;;;;;;7.93;1.48;;;9.30;74.80;;;;;;5111575;28;20081;-69
2021/03/17 11:53:51;;;;;;;8.68;1.02;;;9.30;74.90;;;;;;5110552;28;20055;-71
2021/03/17 11:56:18;;;;;;;4.10;0.60;;;9.40;75.90;;;;;;5112323;28;20054;-73
2021/03/17 11:58:44;;;;;;;3.17;0.77;;;9.40;76.80;;;;;;5109192;28;20031;-72
2021/03/17 12:01:10;;;;;;;4.22;0.75;;;9.40;77.10;;;;;;5089726;28;20129;-73
2021/03/17 12:03:37;;;;;;;3.13;0.73;;;9.40;75.40;;;;;;5104558;28;20023;-71
2021/03/17 12:06:03;;;;;;;3.28;1.08;;;9.40;75.60;;;;;;5102696;28;20070;-69
2021/03/17 12:08:29;;;;;;;3.65;0.95;;;9.50;75.40;;;;;;5109433;28;20125;-70
2021/03/17 12:10:56;;;;;;;1.38;0.70;;;9.50;76.20;;;;;;5099786;28;20367;-71
2021/03/17 12:13:24;;;;;;;4.65;0.90;;;9.50;76.80;;;;;;5107838;28;20032;-70
2021/03/17 12:15:50;;;;;;;9.05;1.38;;;9.60;77.60;;;;;;5107668;28;20088;-70
2021/03/17 12:18:19;;;;;;;3.35;0.85;;;9.60;76.90;;;;;;5104447;28;20462;-71
2021/03/17 12:20:45;;;;;;;3.35;1.00;;;9.60;77.00;;;;;;5101946;28;20106;-71
2021/03/17 12:23:11;;;;;;;3.88;1.02;;;9.60;75.20;;;;;;5102301;28;20039;-71
2021/03/17 12:25:37;;;;;;;9.45;1.10;;;9.60;73.80;;;;;;5100140;28;20024;-69
2021/03/17 12:28:03;;;;;;;6.28;1.48;;;9.70;73.20;;;;;;5111083;28;20043;-71
2021/03/17 12:30:29;;;;;;;7.53;1.23;;;9.70;74.30;;;;;;5104904;28;20032;-69
2021/03/17 12:32:55;;;;;;;2.75;1.13;;;9.70;75.20;;;;;;5100406;28;20036;-68
2021/03/17 12:35:23;;;;;;;8.07;1.63;;;9.70;75.80;;;;;;5067785;28;20123;-69
2021/03/17 12:37:52;;;;;;;2.90;1.35;;;9.70;75.20;;;;;;5066027;28;20037;-70
2021/03/17 12:40:21;;;;;;;5.53;1.08;;;9.70;76.50;;;;;;5070484;28;20036;-68
2021/03/17 12:42:47;;;;;;;4.63;0.88;;;9.70;76.70;;;;;;5069397;28;20069;-72
2021/03/17 12:45:15;;;;;;;7.80;1.88;;;9.70;74.90;;;;;;5056522;28;20423;-70
2021/03/17 12:47:41;;;;;;;2.63;0.90;;;9.70;73.80;;;;;;5066877;28;20493;-71
2021/03/17 12:50:10;;;;;;;4.88;0.90;;;9.70;74.20;;;;;;5069570;28;20123;-71
2021/03/17 12:52:36;;;;;;;5.32;1.33;;;9.70;73.80;;;;;;5067295;28;20021;-71
2021/03/17 12:55:03;;;;;;;10.93;2.10;;;9.80;73.40;;;;;;5066582;28;20041;-70
2021/03/17 12:57:30;;;;;;;5.88;1.33;;;9.80;73.00;;;;;;5064395;28;20033;-71
2021/03/17 12:59:57;;;;;;;4.28;0.88;;;9.80;72.50;;;;;;5071059;28;20035;-71
2021/03/17 13:02:23;;;;;;;7.00;2.72;;;9.80;73.70;;;;;;5087768;28;20078;-69
2021/03/17 13:04:49;;;;;;;5.75;0.88;;;9.80;71.50;;;;;;5064247;28;20522;-69
2021/03/17 13:07:17;;;;;;;5.93;1.02;;;9.80;72.10;;;;;;5053889;28;20029;-69
2021/03/17 13:09:42;;;;;;;5.95;0.82;;;9.90;72.70;;;;;;5055921;28;20043;-70
2021/03/17 13:12:08;;;;;;;8.68;1.33;;;9.90;72.70;;;;;;5054449;28;20032;-69
2021/03/17 13:14:34;;;;;;;6.05;1.55;;;9.90;73.10;;;;;;5072858;28;20074;-70
2021/03/17 13:17:03;;;;;;;7.80;1.38;;;10.00;72.40;;;;;;5074268;28;20035;-68
2021/03/17 13:19:29;;;;;;;4.88;1.30;;;10.00;71.50;;;;;;5073543;28;20135;-68